• Join FlightAware (Why Join?)
  • Login
  • US Flag 
03:09PM EST


 

Airport Tracker/Info


-or-


 

Live Flight TrackerFlight Track Log ✈ CTL22 ✈ 22-May-2013 ✈ KBKL - KGRR

Flight Track Log - Related Links

Times and Time Zones

All times are in EDT time to prevent confusion due to time zone crossing. See the CTL22 flight status page for this flight to view local times or setup timezone preferences in your user account.

Time Position Orientation Groundspeed Altitude Reporting Facility
EDT Latitude Longitude Course Direction KTS MPH feet Rate Location/Type
09:15PM 41.5353 -81.7094 336° Northwest 126 145 1,400  Level Cleveland Center
09:16PM 41.5769 -81.7239 345° North 165 190 2,000 240 Climbing Cleveland Center
09:17PM 41.6119 -81.7633 320° Northwest 165 190 1,900 60 Descending Cleveland Center
09:18PM 41.6303 -81.8167 295° West 147 169 2,200 300 Climbing Cleveland Center
09:19PM 41.6486 -81.8614 299° West 139 160 2,600 480 Climbing Cleveland Center
09:20PM 41.6544 -81.8947 283° West 117 135 3,100 540 Climbing Cleveland Center
09:21PM 41.6561 -81.9339 273° West 112 129 3,600 600 Climbing Cleveland Center
09:22PM 41.6556 -81.9589 268° West 107 123 4,000 660 Climbing Cleveland Center
09:22PM 41.6575 -81.9728 281° West 107 123 4,300 660 Climbing Cleveland Center
09:23PM 41.6656 -81.9953 296° West 118 136 4,700 660 Climbing Cleveland Center
09:23PM 41.6758 -82.0064 321° Northwest 112 129 5,000 600 Climbing Cleveland Center
09:23PM 41.6819 -82.0233 296° West 112 129 5,200 480 Climbing Cleveland Center
09:24PM 41.6922 -82.0431 305° West 117 135 5,500 660 Climbing Cleveland Center
09:24PM 41.7003 -82.0600 302° West 119 137 5,900 480 Climbing Cleveland Center
09:25PM 41.7103 -82.0853 298° West 136 157 6,000 60 Climbing Cleveland Center
09:25PM 41.7206 -82.1047 305° West 147 169 6,000 60 Level Cleveland Center
09:26PM 41.7325 -82.1358 297° West 158 182 6,100 60 Climbing Cleveland Center
09:26PM 41.7450 -82.1528 315° West 163 188 6,100 -120 Level Cleveland Center
09:28PM 41.7692 -82.2147 298° West 164 189 6,000 -60 Descending Cleveland Center
09:28PM 41.7853 -82.2511 301° West 157 181 6,000  Level Cleveland Center
09:29PM 41.8072 -82.3047 299° West 153 176 6,000  Level Cleveland Center
09:30PM 41.8294 -82.3556 300° West 151 174 6,000  Level Cleveland Center
09:32PM 41.8514 -82.4175 295° West 155 178 6,000  Level Cleveland Center
09:33PM 41.8675 -82.4597 297° West 153 176 6,000  Level Cleveland Center
09:33PM 41.8833 -82.5103 293° West 151 174 6,100  Climbing Cleveland Center
09:35PM 41.9053 -82.5642 299° West 150 173 6,100 -60 Level Cleveland Center
09:36PM 41.9169 -82.6175 286° West 148 170 6,000  Descending Cleveland Center
09:36PM 41.9181 -82.6678 272° West 147 169 6,100  Climbing Cleveland Center
09:37PM 41.9275 -82.7239 283° West 146 168 6,100 -60 Level Cleveland Center
09:39PM 41.9328 -82.7769 278° West 148 170 6,000  Descending Cleveland Center
09:40PM 41.9464 -82.8306 289° West 157 181 6,100  Climbing Cleveland Center
09:41PM 41.9828 -82.8850 312° West 163 188 6,000 -120 Descending Cleveland Center
09:42PM 42.0128 -82.9419 305° West 163 188 5,900  Descending Cleveland Center
09:43PM 42.0392 -82.9764 316° Northwest 160 184 6,000  Climbing Cleveland Center
09:44PM 42.0675 -83.0194 312° West 157 181 6,000  Level Cleveland Center
09:45PM 42.0914 -83.0653 305° West 154 177 6,000  Level Cleveland Center
09:46PM 42.1197 -83.1056 313° West 152 175 6,000  Level Cleveland Center
09:47PM 42.1481 -83.1514 310° West 156 180 6,000  Level Cleveland Center
09:48PM 42.1761 -83.1944 311° West 156 180 6,000  Level Cleveland Center
09:49PM 42.2064 -83.2433 310° West 155 178 6,000  Level Cleveland Center
09:50PM 42.2322 -83.2922 306° West 155 178 6,000  Level Cleveland Center
09:51PM 42.2542 -83.3408 301° West 148 170 6,000  Level Cleveland Center
09:52PM 42.2694 -83.3947 291° West 153 176 6,000  Level Cleveland Center
09:53PM 42.2850 -83.4406 295° West 154 177 6,000  Level Cleveland Center
09:54PM 42.3044 -83.5003 294° West 153 176 6,000  Level Cleveland Center
09:55PM 42.3217 -83.5544 293° West 149 171 6,000  Level Cleveland Center
09:56PM 42.3350 -83.6083 289° West 148 170 6,000  Level Cleveland Center
09:57PM 42.3525 -83.6569 296° West 146 168 6,000  Level Cleveland Center
09:58PM 42.3678 -83.7083 292° West 147 169 6,000  Level Cleveland Center
09:59PM 42.3911 -83.7819 293° West 148 170 6,000  Level Chicago Center
10:00PM 42.4072 -83.8350 292° West 149 171 6,000  Level Chicago Center
10:01PM 42.4267 -83.8989 292° West 151 174 6,000  Level Chicago Center
10:03PM 42.4419 -83.9528 291° West 153 176 6,000  Level Chicago Center
10:04PM 42.4572 -84.0069 291° West 154 177 6,000  Level Chicago Center
10:05PM 42.4739 -84.0606 293° West 154 177 6,000  Level Chicago Center
10:06PM 42.4875 -84.1136 289° West 150 173 6,000  Level Chicago Center
10:07PM 42.5044 -84.1683 293° West 155 178 6,000  Level Chicago Center
10:08PM 42.5200 -84.2203 292° West 152 175 6,000  Level Chicago Center
10:09PM 42.5364 -84.2753 292° West 156 180 6,000  Level Chicago Center
10:10PM 42.5539 -84.3419 290° West 157 181 6,000  Level Chicago Center
10:11PM 42.5711 -84.3967 293° West 158 182 6,000  Level Chicago Center
10:12PM 42.5850 -84.4494 290° West 153 176 6,000  Level Chicago Center
10:13PM 42.6028 -84.5036 294° West 156 180 6,100  Climbing Chicago Center
10:14PM 42.6194 -84.5556 294° West 152 175 6,100 -60 Level Chicago Center
10:15PM 42.6386 -84.6089 296° West 156 180 6,000 -60 Descending Chicago Center
10:16PM 42.6561 -84.6636 294° West 157 181 6,000  Level Chicago Center
10:17PM 42.6733 -84.7175 294° West 156 180 6,000  Level Chicago Center
10:18PM 42.6917 -84.7822 291° West 154 177 6,000  Level Chicago Center
10:19PM 42.7067 -84.8367 291° West 155 178 6,100  Climbing Chicago Center
10:20PM 42.7236 -84.8914 293° West 157 181 6,000 -60 Descending Chicago Center
10:21PM 42.7417 -84.9447 295° West 157 181 6,000  Level Chicago Center
10:22PM 42.7625 -84.9953 299° West 156 180 6,000  Level Chicago Center
10:23PM 42.7833 -85.0478 298° West 157 181 6,100 -60 Climbing Chicago Center
10:24PM 42.8083 -85.0953 306° West 156 180 5,900 -240 Descending Chicago Center
10:25PM 42.8431 -85.1486 312° West 160 184 5,700 -480 Descending Chicago Center
10:26PM 42.8892 -85.1719 340° North 175 201 5,000 -660 Descending Chicago Center
10:27PM 42.9344 -85.1722 360° North 168 193 4,400 -660 Descending Chicago Center
10:28PM 42.9344 -85.1939 270° West 168 193 3,700 -600 Descending Chicago Center
10:29PM 42.9094 -85.2269 224° Southwest 154 177 3,200 -480 Descending Chicago Center
10:30PM 42.9061 -85.2758 265° West 137 158 2,800 -300 Descending Chicago Center
10:31PM 42.9006 -85.3203 260° West 126 145 2,700 -60 Descending Chicago Center
10:32PM 42.8953 -85.3608 260° West 117 135 2,700 -60 Level Chicago Center
10:33PM 42.8911 -85.4008 262° West 111 128 2,600 -420 Descending Chicago Center
10:34PM 42.8875 -85.4469 264° West 106 122 1,900 -780 Descending Chicago Center
10:35PM 42.8825 -85.4878 261° West 106 122 1,100 -480 Descending Chicago Center
10:36PM 42.8775 -85.5289 261° West 107 123 1,000 -120 Descending Chicago Center
10:38PM 42.8808 -85.5228 53° Northeast  Level Estimated